sensor_id;sensor_type;location;lat;lon;timestamp;temperature;humidity
69436;SHT31;56625;54.322;18.582;2023-09-19T00:00:57;20.28;71.96
69436;SHT31;56625;54.322;18.582;2023-09-19T00:03:38;20.29;71.90
69436;SHT31;56625;54.322;18.582;2023-09-19T00:06:07;20.31;71.81
69436;SHT31;56625;54.322;18.582;2023-09-19T00:08:36;20.33;71.79
69436;SHT31;56625;54.322;18.582;2023-09-19T00:11:04;20.34;71.80
69436;SHT31;56625;54.322;18.582;2023-09-19T00:13:33;20.34;71.80
69436;SHT31;56625;54.322;18.582;2023-09-19T00:16:10;20.36;71.72
69436;SHT31;56625;54.322;18.582;2023-09-19T00:18:39;20.38;71.69
69436;SHT31;56625;54.322;18.582;2023-09-19T00:21:07;20.40;71.68
69436;SHT31;56625;54.322;18.582;2023-09-19T00:23:35;20.41;71.59
69436;SHT31;56625;54.322;18.582;2023-09-19T00:26:03;20.44;71.57
69436;SHT31;56625;54.322;18.582;2023-09-19T00:28:31;20.45;71.52
69436;SHT31;56625;54.322;18.582;2023-09-19T00:31:00;20.48;71.55
69436;SHT31;56625;54.322;18.582;2023-09-19T00:33:29;20.50;71.72
69436;SHT31;56625;54.322;18.582;2023-09-19T00:35:58;20.52;71.62
69436;SHT31;56625;54.322;18.582;2023-09-19T00:38:26;20.52;71.56
69436;SHT31;56625;54.322;18.582;2023-09-19T00:40:56;20.52;71.63
69436;SHT31;56625;54.322;18.582;2023-09-19T00:43:27;20.54;71.64
69436;SHT31;56625;54.322;18.582;2023-09-19T00:45:56;20.54;71.45
69436;SHT31;56625;54.322;18.582;2023-09-19T00:48:25;20.55;71.33
69436;SHT31;56625;54.322;18.582;2023-09-19T00:50:57;20.55;71.24
69436;SHT31;56625;54.322;18.582;2023-09-19T00:53:31;20.56;71.38
69436;SHT31;56625;54.322;18.582;2023-09-19T00:56:02;20.54;71.81
69436;SHT31;56625;54.322;18.582;2023-09-19T00:58:35;20.53;72.04
69436;SHT31;56625;54.322;18.582;2023-09-19T01:01:04;20.51;72.17
69436;SHT31;56625;54.322;18.582;2023-09-19T01:03:36;20.51;72.08
69436;SHT31;56625;54.322;18.582;2023-09-19T01:06:05;20.49;72.08
69436;SHT31;56625;54.322;18.582;2023-09-19T01:08:35;20.48;72.32
69436;SHT31;56625;54.322;18.582;2023-09-19T01:11:20;20.42;73.05
69436;SHT31;56625;54.322;18.582;2023-09-19T01:14:11;20.33;73.61
69436;SHT31;56625;54.322;18.582;2023-09-19T01:16:56;20.30;73.81
69436;SHT31;56625;54.322;18.582;2023-09-19T01:22:46;20.06;75.64
69436;SHT31;56625;54.322;18.582;2023-09-19T01:26:07;19.89;76.37
69436;SHT31;56625;54.322;18.582;2023-09-19T01:31:57;19.73;76.91
69436;SHT31;56625;54.322;18.582;2023-09-19T01:34:46;19.71;76.81
69436;SHT31;56625;54.322;18.582;2023-09-19T01:37:18;19.69;76.64
69436;SHT31;56625;54.322;18.582;2023-09-19T01:39:50;19.70;76.51
69436;SHT31;56625;54.322;18.582;2023-09-19T01:47:56;19.73;76.58
69436;SHT31;56625;54.322;18.582;2023-09-19T01:50:50;19.74;76.56
69436;SHT31;56625;54.322;18.582;2023-09-19T01:53:33;19.74;76.89
69436;SHT31;56625;54.322;18.582;2023-09-19T01:56:12;19.73;77.00
69436;SHT31;56625;54.322;18.582;2023-09-19T01:58:51;19.71;77.00
69436;SHT31;56625;54.322;18.582;2023-09-19T02:01:27;19.70;77.00
69436;SHT31;56625;54.322;18.582;2023-09-19T02:03:56;19.71;77.10
69436;SHT31;56625;54.322;18.582;2023-09-19T02:06:26;19.70;77.21
69436;SHT31;56625;54.322;18.582;2023-09-19T02:08:55;19.72;77.30
69436;SHT31;56625;54.322;18.582;2023-09-19T02:11:23;19.74;77.23
69436;SHT31;56625;54.322;18.582;2023-09-19T02:13:51;19.76;77.27
69436;SHT31;56625;54.322;18.582;2023-09-19T02:16:22;19.80;77.56
69436;SHT31;56625;54.322;18.582;2023-09-19T02:18:50;19.87;77.53
69436;SHT31;56625;54.322;18.582;2023-09-19T02:21:18;19.95;77.16
69436;SHT31;56625;54.322;18.582;2023-09-19T02:23:46;20.02;76.93
69436;SHT31;56625;54.322;18.582;2023-09-19T02:26:15;20.06;76.86
69436;SHT31;56625;54.322;18.582;2023-09-19T02:28:43;20.10;76.69
69436;SHT31;56625;54.322;18.582;2023-09-19T02:31:13;20.14;76.51
69436;SHT31;56625;54.322;18.582;2023-09-19T02:33:41;20.15;76.54
69436;SHT31;56625;54.322;18.582;2023-09-19T02:36:11;20.17;76.58
69436;SHT31;56625;54.322;18.582;2023-09-19T02:38:39;20.18;76.47
69436;SHT31;56625;54.322;18.582;2023-09-19T02:41:06;20.19;76.28
69436;SHT31;56625;54.322;18.582;2023-09-19T02:43:35;20.20;76.19
69436;SHT31;56625;54.322;18.582;2023-09-19T02:46:03;20.21;76.14
69436;SHT31;56625;54.322;18.582;2023-09-19T02:48:31;20.20;75.94
69436;SHT31;56625;54.322;18.582;2023-09-19T02:50:59;20.19;75.86
69436;SHT31;56625;54.322;18.582;2023-09-19T02:53:27;20.19;75.80
69436;SHT31;56625;54.322;18.582;2023-09-19T02:55:55;20.18;75.72
69436;SHT31;56625;54.322;18.582;2023-09-19T02:58:24;20.19;75.69
69436;SHT31;56625;54.322;18.582;2023-09-19T03:00:52;20.19;75.61
69436;SHT31;56625;54.322;18.582;2023-09-19T03:03:22;20.19;75.60
69436;SHT31;56625;54.322;18.582;2023-09-19T03:05:51;20.17;75.60
69436;SHT31;56625;54.322;18.582;2023-09-19T03:08:22;20.17;75.60
69436;SHT31;56625;54.322;18.582;2023-09-19T03:10:51;20.16;75.67
69436;SHT31;56625;54.322;18.582;2023-09-19T03:13:19;20.15;75.83
69436;SHT31;56625;54.322;18.582;2023-09-19T03:15:47;20.13;75.86
69436;SHT31;56625;54.322;18.582;2023-09-19T03:18:18;20.11;75.88
69436;SHT31;56625;54.322;18.582;2023-09-19T03:20:53;20.09;76.01
69436;SHT31;56625;54.322;18.582;2023-09-19T03:23:23;20.02;76.28
69436;SHT31;56625;54.322;18.582;2023-09-19T03:25:51;19.97;76.46
69436;SHT31;56625;54.322;18.582;2023-09-19T03:28:20;19.93;76.61
69436;SHT31;56625;54.322;18.582;2023-09-19T03:30:59;19.88;76.86
69436;SHT31;56625;54.322;18.582;2023-09-19T03:33:30;19.85;77.06
69436;SHT31;56625;54.322;18.582;2023-09-19T03:36:02;19.80;77.40
69436;SHT31;56625;54.322;18.582;2023-09-19T03:38:34;19.75;77.43
69436;SHT31;56625;54.322;18.582;2023-09-19T03:41:03;19.73;77.59
69436;SHT31;56625;54.322;18.582;2023-09-19T03:43:31;19.72;77.76
69436;SHT31;56625;54.322;18.582;2023-09-19T03:46:03;19.72;77.91
69436;SHT31;56625;54.322;18.582;2023-09-19T03:48:33;19.71;78.13
69436;SHT31;56625;54.322;18.582;2023-09-19T03:51:02;19.68;78.43
69436;SHT31;56625;54.322;18.582;2023-09-19T03:53:30;19.62;79.02
69436;SHT31;56625;54.322;18.582;2023-09-19T03:55:58;19.58;79.11
69436;SHT31;56625;54.322;18.582;2023-09-19T03:58:27;19.57;79.29
69436;SHT31;56625;54.322;18.582;2023-09-19T04:00:56;19.55;79.38
69436;SHT31;56625;54.322;18.582;2023-09-19T04:03:24;19.57;79.58
69436;SHT31;56625;54.322;18.582;2023-09-19T04:06:02;19.54;79.72
69436;SHT31;56625;54.322;18.582;2023-09-19T04:08:30;19.53;79.94
69436;SHT31;56625;54.322;18.582;2023-09-19T04:10:58;19.55;80.22
69436;SHT31;56625;54.322;18.582;2023-09-19T04:13:26;19.57;80.70
69436;SHT31;56625;54.322;18.582;2023-09-19T04:15:54;19.66;81.28
69436;SHT31;56625;54.322;18.582;2023-09-19T04:18:22;19.81;81.36
69436;SHT31;56625;54.322;18.582;2023-09-19T04:20:51;19.84;80.89
69436;SHT31;56625;54.322;18.582;2023-09-19T04:23:23;19.83;80.77
69436;SHT31;56625;54.322;18.582;2023-09-19T04:25:51;19.81;80.90
69436;SHT31;56625;54.322;18.582;2023-09-19T04:28:19;19.79;80.86
69436;SHT31;56625;54.322;18.582;2023-09-19T04:30:47;19.76;81.06
69436;SHT31;56625;54.322;18.582;2023-09-19T04:33:15;19.71;81.06
69436;SHT31;56625;54.322;18.582;2023-09-19T04:35:43;19.75;81.38
69436;SHT31;56625;54.322;18.582;2023-09-19T04:38:11;19.81;81.31
69436;SHT31;56625;54.322;18.582;2023-09-19T04:40:39;19.77;80.74
69436;SHT31;56625;54.322;18.582;2023-09-19T04:43:07;19.66;80.84
69436;SHT31;56625;54.322;18.582;2023-09-19T04:45:36;19.55;81.03
69436;SHT31;56625;54.322;18.582;2023-09-19T04:48:10;19.53;81.48
69436;SHT31;56625;54.322;18.582;2023-09-19T04:50:38;19.49;81.30
69436;SHT31;56625;54.322;18.582;2023-09-19T04:53:06;19.43;81.39
69436;SHT31;56625;54.322;18.582;2023-09-19T04:55:34;19.32;81.69
69436;SHT31;56625;54.322;18.582;2023-09-19T04:58:02;19.24;81.91
69436;SHT31;56625;54.322;18.582;2023-09-19T05:00:31;19.16;82.20
69436;SHT31;56625;54.322;18.582;2023-09-19T05:03:03;19.10;82.48
69436;SHT31;56625;54.322;18.582;2023-09-19T05:05:31;19.05;82.71
69436;SHT31;56625;54.322;18.582;2023-09-19T05:07:59;18.99;83.19
69436;SHT31;56625;54.322;18.582;2023-09-19T05:10:33;18.92;83.35
69436;SHT31;56625;54.322;18.582;2023-09-19T05:13:05;18.89;83.68
69436;SHT31;56625;54.322;18.582;2023-09-19T05:15:35;18.84;83.73
69436;SHT31;56625;54.322;18.582;2023-09-19T05:18:03;18.80;84.07
69436;SHT31;56625;54.322;18.582;2023-09-19T05:20:34;18.76;84.35
69436;SHT31;56625;54.322;18.582;2023-09-19T05:23:04;18.74;84.46
69436;SHT31;56625;54.322;18.582;2023-09-19T05:25:40;18.70;84.50
69436;SHT31;56625;54.322;18.582;2023-09-19T05:28:09;18.73;84.56
69436;SHT31;56625;54.322;18.582;2023-09-19T05:30:40;18.73;84.64
69436;SHT31;56625;54.322;18.582;2023-09-19T05:33:09;18.79;84.90
69436;SHT31;56625;54.322;18.582;2023-09-19T05:35:37;18.88;84.80
69436;SHT31;56625;54.322;18.582;2023-09-19T05:38:07;18.95;84.70
69436;SHT31;56625;54.322;18.582;2023-09-19T05:40:40;18.99;84.31
69436;SHT31;56625;54.322;18.582;2023-09-19T05:43:13;19.04;84.16
69436;SHT31;56625;54.322;18.582;2023-09-19T05:45:42;18.99;83.95
69436;SHT31;56625;54.322;18.582;2023-09-19T05:48:13;18.95;84.05
69436;SHT31;56625;54.322;18.582;2023-09-19T05:50:44;18.92;84.36
69436;SHT31;56625;54.322;18.582;2023-09-19T05:53:14;18.90;84.59
69436;SHT31;56625;54.322;18.582;2023-09-19T05:55:42;18.90;84.69
69436;SHT31;56625;54.322;18.582;2023-09-19T05:58:11;18.91;84.65
69436;SHT31;56625;54.322;18.582;2023-09-19T06:00:41;18.97;84.72
69436;SHT31;56625;54.322;18.582;2023-09-19T06:03:12;19.10;84.92
69436;SHT31;56625;54.322;18.582;2023-09-19T06:05:42;19.24;84.59
69436;SHT31;56625;54.322;18.582;2023-09-19T06:08:10;19.28;84.19
69436;SHT31;56625;54.322;18.582;2023-09-19T06:10:38;19.30;84.09
69436;SHT31;56625;54.322;18.582;2023-09-19T06:13:06;19.29;84.03
69436;SHT31;56625;54.322;18.582;2023-09-19T06:15:37;19.30;84.20
69436;SHT31;56625;54.322;18.582;2023-09-19T06:18:10;19.30;84.15
69436;SHT31;56625;54.322;18.582;2023-09-19T06:20:43;19.32;84.12
69436;SHT31;56625;54.322;18.582;2023-09-19T06:23:13;19.35;84.09
69436;SHT31;56625;54.322;18.582;2023-09-19T06:25:41;19.36;84.15
69436;SHT31;56625;54.322;18.582;2023-09-19T06:28:11;19.35;84.15
69436;SHT31;56625;54.322;18.582;2023-09-19T06:30:42;19.30;84.41
69436;SHT31;56625;54.322;18.582;2023-09-19T06:33:10;19.26;84.73
69436;SHT31;56625;54.322;18.582;2023-09-19T06:35:42;19.23;84.69
69436;SHT31;56625;54.322;18.582;2023-09-19T06:38:12;19.26;84.76
69436;SHT31;56625;54.322;18.582;2023-09-19T06:40:40;19.30;84.73
69436;SHT31;56625;54.322;18.582;2023-09-19T06:43:10;19.36;84.53
69436;SHT31;56625;54.322;18.582;2023-09-19T06:45:39;19.39;84.38
69436;SHT31;56625;54.322;18.582;2023-09-19T06:48:07;19.40;84.26
69436;SHT31;56625;54.322;18.582;2023-09-19T06:50:37;19.44;83.94
69436;SHT31;56625;54.322;18.582;2023-09-19T06:53:06;19.46;83.94
69436;SHT31;56625;54.322;18.582;2023-09-19T06:55:34;19.48;83.79
69436;SHT31;56625;54.322;18.582;2023-09-19T06:58:03;19.49;83.69
69436;SHT31;56625;54.322;18.582;2023-09-19T07:00:33;19.51;83.58
69436;SHT31;56625;54.322;18.582;2023-09-19T07:03:05;19.53;83.61
69436;SHT31;56625;54.322;18.582;2023-09-19T07:05:41;19.58;83.47
69436;SHT31;56625;54.322;18.582;2023-09-19T07:08:10;19.59;83.16
69436;SHT31;56625;54.322;18.582;2023-09-19T07:10:41;19.60;82.97
69436;SHT31;56625;54.322;18.582;2023-09-19T07:13:17;19.64;82.99
69436;SHT31;56625;54.322;18.582;2023-09-19T07:15:45;19.69;82.79
69436;SHT31;56625;54.322;18.582;2023-09-19T07:18:19;19.75;82.68
69436;SHT31;56625;54.322;18.582;2023-09-19T07:20:48;19.85;82.58
69436;SHT31;56625;54.322;18.582;2023-09-19T07:23:19;19.95;82.10
69436;SHT31;56625;54.322;18.582;2023-09-19T07:25:50;20.05;81.86
69436;SHT31;56625;54.322;18.582;2023-09-19T07:28:18;20.14;81.31
69436;SHT31;56625;54.322;18.582;2023-09-19T07:30:46;20.22;81.00
69436;SHT31;56625;54.322;18.582;2023-09-19T07:33:14;20.29;80.41
69436;SHT31;56625;54.322;18.582;2023-09-19T07:35:45;20.31;80.04
69436;SHT31;56625;54.322;18.582;2023-09-19T07:38:15;20.33;80.16
69436;SHT31;56625;54.322;18.582;2023-09-19T07:40:45;20.33;80.11
69436;SHT31;56625;54.322;18.582;2023-09-19T07:43:13;20.31;80.14
69436;SHT31;56625;54.322;18.582;2023-09-19T07:45:41;20.25;79.66
69436;SHT31;56625;54.322;18.582;2023-09-19T07:48:09;20.19;79.70
69436;SHT31;56625;54.322;18.582;2023-09-19T07:50:42;20.16;80.00
69436;SHT31;56625;54.322;18.582;2023-09-19T07:53:11;20.11;80.08
69436;SHT31;56625;54.322;18.582;2023-09-19T07:55:41;20.06;79.81
69436;SHT31;56625;54.322;18.582;2023-09-19T07:58:10;20.02;79.67
69436;SHT31;56625;54.322;18.582;2023-09-19T08:00:38;20.00;79.63
69436;SHT31;56625;54.322;18.582;2023-09-19T08:03:06;19.99;79.88
69436;SHT31;56625;54.322;18.582;2023-09-19T08:05:44;19.99;79.93
69436;SHT31;56625;54.322;18.582;2023-09-19T08:08:13;19.97;79.67
69436;SHT31;56625;54.322;18.582;2023-09-19T08:10:43;19.97;79.74
69436;SHT31;56625;54.322;18.582;2023-09-19T08:13:14;19.97;79.31
69436;SHT31;56625;54.322;18.582;2023-09-19T08:15:44;19.98;79.25
69436;SHT31;56625;54.322;18.582;2023-09-19T08:18:13;20.01;79.25
69436;SHT31;56625;54.322;18.582;2023-09-19T08:20:48;20.14;79.15
69436;SHT31;56625;54.322;18.582;2023-09-19T08:23:18;20.43;78.78
69436;SHT31;56625;54.322;18.582;2023-09-19T08:25:48;20.69;77.70
69436;SHT31;56625;54.322;18.582;2023-09-19T08:28:16;20.95;77.04
69436;SHT31;56625;54.322;18.582;2023-09-19T08:30:50;21.25;76.06
69436;SHT31;56625;54.322;18.582;2023-09-19T08:33:19;21.40;74.68
69436;SHT31;56625;54.322;18.582;2023-09-19T08:35:47;21.39;73.68
69436;SHT31;56625;54.322;18.582;2023-09-19T08:38:15;21.35;73.27
69436;SHT31;56625;54.322;18.582;2023-09-19T08:40:43;21.28;73.39
69436;SHT31;56625;54.322;18.582;2023-09-19T08:43:11;21.21;72.96
69436;SHT31;56625;54.322;18.582;2023-09-19T08:45:40;21.17;73.48
69436;SHT31;56625;54.322;18.582;2023-09-19T08:48:16;21.20;73.47
69436;SHT31;56625;54.322;18.582;2023-09-19T08:51:42;21.29;72.74
69436;SHT31;56625;54.322;18.582;2023-09-19T08:54:21;21.41;71.82
69436;SHT31;56625;54.322;18.582;2023-09-19T08:56:57;21.60;71.54
69436;SHT31;56625;54.322;18.582;2023-09-19T08:59:35;21.68;71.29
69436;SHT31;56625;54.322;18.582;2023-09-19T09:02:11;21.84;70.88
69436;SHT31;56625;54.322;18.582;2023-09-19T09:04:41;22.00;69.29
69436;SHT31;56625;54.322;18.582;2023-09-19T09:07:12;21.95;68.38
69436;SHT31;56625;54.322;18.582;2023-09-19T09:09:40;21.83;68.10
69436;SHT31;56625;54.322;18.582;2023-09-19T09:12:27;21.98;68.22
69436;SHT31;56625;54.322;18.582;2023-09-19T09:14:58;22.21;67.88
69436;SHT31;56625;54.322;18.582;2023-09-19T09:17:26;22.40;67.05
69436;SHT31;56625;54.322;18.582;2023-09-19T09:19:54;22.47;66.56
69436;SHT31;56625;54.322;18.582;2023-09-19T09:22:23;22.49;66.43
69436;SHT31;56625;54.322;18.582;2023-09-19T09:24:52;22.56;66.67
69436;SHT31;56625;54.322;18.582;2023-09-19T09:27:25;22.68;66.59
69436;SHT31;56625;54.322;18.582;2023-09-19T09:29:53;22.72;65.61
69436;SHT31;56625;54.322;18.582;2023-09-19T09:32:30;22.67;65.12
69436;SHT31;56625;54.322;18.582;2023-09-19T09:35:10;22.78;63.69
69436;SHT31;56625;54.322;18.582;2023-09-19T09:37:38;22.84;64.44
69436;SHT31;56625;54.322;18.582;2023-09-19T09:40:06;22.96;64.72
69436;SHT31;56625;54.322;18.582;2023-09-19T09:42:41;22.93;64.51
69436;SHT31;56625;54.322;18.582;2023-09-19T09:45:19;22.87;64.33
69436;SHT31;56625;54.322;18.582;2023-09-19T09:48:00;22.74;64.38
69436;SHT31;56625;54.322;18.582;2023-09-19T09:50:46;22.52;63.48
69436;SHT31;56625;54.322;18.582;2023-09-19T09:53:19;22.44;64.04
69436;SHT31;56625;54.322;18.582;2023-09-19T09:56:04;22.46;64.35
69436;SHT31;56625;54.322;18.582;2023-09-19T09:58:35;22.54;64.28
69436;SHT31;56625;54.322;18.582;2023-09-19T10:01:27;22.52;64.03
69436;SHT31;56625;54.322;18.582;2023-09-19T10:03:59;22.51;64.62
69436;SHT31;56625;54.322;18.582;2023-09-19T10:06:39;22.44;63.15
69436;SHT31;56625;54.322;18.582;2023-09-19T10:09:14;22.22;63.19
69436;SHT31;56625;54.322;18.582;2023-09-19T10:11:45;22.07;64.25
69436;SHT31;56625;54.322;18.582;2023-09-19T10:14:21;22.00;64.64
69436;SHT31;56625;54.322;18.582;2023-09-19T10:16:58;21.93;64.94
69436;SHT31;56625;54.322;18.582;2023-09-19T10:22:17;21.83;64.31
69436;SHT31;56625;54.322;18.582;2023-09-19T10:24:49;21.84;64.14
69436;SHT31;56625;54.322;18.582;2023-09-19T10:27:29;21.84;63.60
69436;SHT31;56625;54.322;18.582;2023-09-19T10:30:05;21.87;63.56
69436;SHT31;56625;54.322;18.582;2023-09-19T10:32:39;21.91;63.54
69436;SHT31;56625;54.322;18.582;2023-09-19T10:35:10;21.82;63.16
69436;SHT31;56625;54.322;18.582;2023-09-19T10:37:41;21.77;63.06
69436;SHT31;56625;54.322;18.582;2023-09-19T10:40:17;21.76;62.73
69436;SHT31;56625;54.322;18.582;2023-09-19T10:42:48;21.74;62.89
69436;SHT31;56625;54.322;18.582;2023-09-19T10:45:18;21.70;62.64
69436;SHT31;56625;54.322;18.582;2023-09-19T10:47:47;21.79;62.20
69436;SHT31;56625;54.322;18.582;2023-09-19T10:50:19;22.01;61.46
69436;SHT31;56625;54.322;18.582;2023-09-19T10:52:53;22.26;60.49
69436;SHT31;56625;54.322;18.582;2023-09-19T10:55:35;22.49;59.41
69436;SHT31;56625;54.322;18.582;2023-09-19T10:58:05;22.59;58.76
69436;SHT31;56625;54.322;18.582;2023-09-19T11:00:56;22.72;56.96
69436;SHT31;56625;54.322;18.582;2023-09-19T11:03:33;22.93;56.49
69436;SHT31;56625;54.322;18.582;2023-09-19T11:06:05;23.08;56.15
69436;SHT31;56625;54.322;18.582;2023-09-19T11:08:55;22.99;55.58
69436;SHT31;56625;54.322;18.582;2023-09-19T11:11:41;22.91;56.53
69436;SHT31;56625;54.322;18.582;2023-09-19T11:30:50;22.69;55.29
69436;SHT31;56625;54.322;18.582;2023-09-19T11:35:59;22.84;54.83
69436;SHT31;56625;54.322;18.582;2023-09-19T11:46:28;22.75;54.39
69436;SHT31;56625;54.322;18.582;2023-09-19T11:49:07;22.81;54.19
69436;SHT31;56625;54.322;18.582;2023-09-19T11:51:40;22.84;53.47
69436;SHT31;56625;54.322;18.582;2023-09-19T11:54:12;22.75;53.77
69436;SHT31;56625;54.322;18.582;2023-09-19T11:56:50;22.66;54.59
69436;SHT31;56625;54.322;18.582;2023-09-19T11:59:22;22.69;55.04
69436;SHT31;56625;54.322;18.582;2023-09-19T12:02:00;22.74;54.97
69436;SHT31;56625;54.322;18.582;2023-09-19T12:04:39;22.81;55.31
69436;SHT31;56625;54.322;18.582;2023-09-19T12:07:12;22.95;54.80
69436;SHT31;56625;54.322;18.582;2023-09-19T12:09:50;23.11;53.24
69436;SHT31;56625;54.322;18.582;2023-09-19T12:12:32;23.26;51.38
69436;SHT31;56625;54.322;18.582;2023-09-19T12:15:03;23.25;49.22
69436;SHT31;56625;54.322;18.582;2023-09-19T12:20:06;23.16;49.36
69436;SHT31;56625;54.322;18.582;2023-09-19T12:22:42;22.95;49.58
69436;SHT31;56625;54.322;18.582;2023-09-19T12:25:15;22.81;50.58
69436;SHT31;56625;54.322;18.582;2023-09-19T12:27:49;22.76;51.12
69436;SHT31;56625;54.322;18.582;2023-09-19T12:30:26;22.71;51.48
69436;SHT31;56625;54.322;18.582;2023-09-19T12:32:56;22.59;51.73
69436;SHT31;56625;54.322;18.582;2023-09-19T12:35:27;22.50;52.03
69436;SHT31;56625;54.322;18.582;2023-09-19T12:38:03;22.43;52.29
69436;SHT31;56625;54.322;18.582;2023-09-19T12:40:32;22.37;52.76
69436;SHT31;56625;54.322;18.582;2023-09-19T12:43:02;22.40;52.93
69436;SHT31;56625;54.322;18.582;2023-09-19T12:45:30;22.40;52.44
69436;SHT31;56625;54.322;18.582;2023-09-19T12:51:09;22.56;51.74
69436;SHT31;56625;54.322;18.582;2023-09-19T12:53:43;22.75;51.10
69436;SHT31;56625;54.322;18.582;2023-09-19T12:56:16;22.86;50.24
69436;SHT31;56625;54.322;18.582;2023-09-19T12:58:55;22.80;50.32
69436;SHT31;56625;54.322;18.582;2023-09-19T13:01:30;22.71;51.05
69436;SHT31;56625;54.322;18.582;2023-09-19T13:04:19;22.55;51.94
69436;SHT31;56625;54.322;18.582;2023-09-19T13:06:55;22.38;53.00
69436;SHT31;56625;54.322;18.582;2023-09-19T13:09:29;22.28;52.99
69436;SHT31;56625;54.322;18.582;2023-09-19T13:12:03;22.16;52.48
69436;SHT31;56625;54.322;18.582;2023-09-19T13:15:12;22.06;52.53
69436;SHT31;56625;54.322;18.582;2023-09-19T13:17:54;22.01;51.33
69436;SHT31;56625;54.322;18.582;2023-09-19T13:20:25;22.05;49.77
69436;SHT31;56625;54.322;18.582;2023-09-19T13:23:00;22.14;49.76
69436;SHT31;56625;54.322;18.582;2023-09-19T13:25:34;22.17;48.33
69436;SHT31;56625;54.322;18.582;2023-09-19T13:28:18;22.09;47.27
69436;SHT31;56625;54.322;18.582;2023-09-19T13:30:46;22.06;47.47
69436;SHT31;56625;54.322;18.582;2023-09-19T13:33:15;22.13;47.26
69436;SHT31;56625;54.322;18.582;2023-09-19T13:35:48;22.25;47.15
69436;SHT31;56625;54.322;18.582;2023-09-19T13:38:16;22.41;47.25
69436;SHT31;56625;54.322;18.582;2023-09-19T13:40:46;22.60;46.70
69436;SHT31;56625;54.322;18.582;2023-09-19T13:43:14;22.68;45.83
69436;SHT31;56625;54.322;18.582;2023-09-19T13:45:43;22.69;46.06
69436;SHT31;56625;54.322;18.582;2023-09-19T13:48:11;22.74;46.46
69436;SHT31;56625;54.322;18.582;2023-09-19T13:50:40;22.86;46.83
69436;SHT31;56625;54.322;18.582;2023-09-19T13:53:10;22.98;46.29
69436;SHT31;56625;54.322;18.582;2023-09-19T13:55:39;23.00;46.25
69436;SHT31;56625;54.322;18.582;2023-09-19T13:58:07;23.02;46.20
69436;SHT31;56625;54.322;18.582;2023-09-19T14:00:38;22.87;46.07
69436;SHT31;56625;54.322;18.582;2023-09-19T14:03:06;22.70;46.94
69436;SHT31;56625;54.322;18.582;2023-09-19T14:05:35;22.63;47.54
69436;SHT31;56625;54.322;18.582;2023-09-19T14:08:05;22.64;47.40
69436;SHT31;56625;54.322;18.582;2023-09-19T14:10:33;22.59;46.59
69436;SHT31;56625;54.322;18.582;2023-09-19T14:13:02;22.48;46.02
69436;SHT31;56625;54.322;18.582;2023-09-19T14:15:36;22.30;46.59
69436;SHT31;56625;54.322;18.582;2023-09-19T14:18:07;22.17;47.44
69436;SHT31;56625;54.322;18.582;2023-09-19T14:20:37;22.07;49.06
69436;SHT31;56625;54.322;18.582;2023-09-19T14:23:10;21.97;50.22
69436;SHT31;56625;54.322;18.582;2023-09-19T14:25:38;21.84;51.08
69436;SHT31;56625;54.322;18.582;2023-09-19T14:28:09;21.74;51.71
69436;SHT31;56625;54.322;18.582;2023-09-19T14:30:37;21.69;52.33
69436;SHT31;56625;54.322;18.582;2023-09-19T14:33:06;21.63;53.20
69436;SHT31;56625;54.322;18.582;2023-09-19T14:35:36;21.63;53.67
69436;SHT31;56625;54.322;18.582;2023-09-19T14:38:05;21.64;53.86
69436;SHT31;56625;54.322;18.582;2023-09-19T14:40:33;21.56;54.38
69436;SHT31;56625;54.322;18.582;2023-09-19T14:43:06;21.57;54.67
69436;SHT31;56625;54.322;18.582;2023-09-19T14:45:36;21.60;55.05
69436;SHT31;56625;54.322;18.582;2023-09-19T14:48:05;21.67;55.08
69436;SHT31;56625;54.322;18.582;2023-09-19T14:50:33;21.70;55.10
69436;SHT31;56625;54.322;18.582;2023-09-19T14:53:01;21.73;55.14
69436;SHT31;56625;54.322;18.582;2023-09-19T14:55:31;21.69;55.16
69436;SHT31;56625;54.322;18.582;2023-09-19T14:58:02;21.66;55.12
69436;SHT31;56625;54.322;18.582;2023-09-19T15:00:31;21.57;55.11
69436;SHT31;56625;54.322;18.582;2023-09-19T15:03:00;21.46;55.34
69436;SHT31;56625;54.322;18.582;2023-09-19T15:05:29;21.39;55.40
69436;SHT31;56625;54.322;18.582;2023-09-19T15:07:58;21.32;55.21
69436;SHT31;56625;54.322;18.582;2023-09-19T15:10:26;21.23;55.10
69436;SHT31;56625;54.322;18.582;2023-09-19T15:12:54;21.17;54.98
69436;SHT31;56625;54.322;18.582;2023-09-19T15:15:22;21.11;54.61
69436;SHT31;56625;54.322;18.582;2023-09-19T15:17:50;21.07;54.89
69436;SHT31;56625;54.322;18.582;2023-09-19T15:20:18;21.06;54.90
69436;SHT31;56625;54.322;18.582;2023-09-19T15:22:49;21.07;55.03
69436;SHT31;56625;54.322;18.582;2023-09-19T15:25:18;21.11;55.10
69436;SHT31;56625;54.322;18.582;2023-09-19T15:27:45;21.10;54.74
69436;SHT31;56625;54.322;18.582;2023-09-19T15:30:13;21.07;54.62
69436;SHT31;56625;54.322;18.582;2023-09-19T15:32:43;21.02;53.99
69436;SHT31;56625;54.322;18.582;2023-09-19T15:35:11;20.97;54.04
69436;SHT31;56625;54.322;18.582;2023-09-19T15:37:41;20.94;53.91
69436;SHT31;56625;54.322;18.582;2023-09-19T15:40:09;20.92;54.08
69436;SHT31;56625;54.322;18.582;2023-09-19T15:42:40;20.87;53.94
69436;SHT31;56625;54.322;18.582;2023-09-19T15:45:09;20.81;54.17
69436;SHT31;56625;54.322;18.582;2023-09-19T15:47:38;20.78;54.59
69436;SHT31;56625;54.322;18.582;2023-09-19T15:50:07;20.75;54.34
69436;SHT31;56625;54.322;18.582;2023-09-19T15:52:42;20.68;54.21
69436;SHT31;56625;54.322;18.582;2023-09-19T15:55:10;20.63;54.56
69436;SHT31;56625;54.322;18.582;2023-09-19T15:57:39;20.57;54.39
69436;SHT31;56625;54.322;18.582;2023-09-19T16:00:07;20.50;54.34
69436;SHT31;56625;54.322;18.582;2023-09-19T16:02:41;20.42;54.60
69436;SHT31;56625;54.322;18.582;2023-09-19T16:05:09;20.33;54.82
69436;SHT31;56625;54.322;18.582;2023-09-19T16:07:40;20.26;55.12
69436;SHT31;56625;54.322;18.582;2023-09-19T16:10:11;20.18;55.05
69436;SHT31;56625;54.322;18.582;2023-09-19T16:12:42;20.11;55.38
69436;SHT31;56625;54.322;18.582;2023-09-19T16:15:12;20.04;55.41
69436;SHT31;56625;54.322;18.582;2023-09-19T16:17:43;19.97;55.46
69436;SHT31;56625;54.322;18.582;2023-09-19T16:20:12;19.91;55.54
69436;SHT31;56625;54.322;18.582;2023-09-19T16:22:40;19.85;55.80
69436;SHT31;56625;54.322;18.582;2023-09-19T16:25:09;19.80;55.94
69436;SHT31;56625;54.322;18.582;2023-09-19T16:27:40;19.76;56.17
69436;SHT31;56625;54.322;18.582;2023-09-19T16:30:08;19.72;56.28